sensor_id;sensor_type;location;lat;lon;timestamp;P1;durP1;ratioP1;P2;durP2;ratioP2
2474;SDS011;1248;48.694;10.160;2022-07-22T00:00:11;14.13;;;9.13;;
2474;SDS011;1248;48.694;10.160;2022-07-22T00:02:39;16.30;;;11.43;;
2474;SDS011;1248;48.694;10.160;2022-07-22T00:05:06;12.00;;;9.33;;
2474;SDS011;1248;48.694;10.160;2022-07-22T00:07:35;13.10;;;8.60;;
2474;SDS011;1248;48.694;10.160;2022-07-22T00:10:03;12.00;;;10.70;;
2474;SDS011;1248;48.694;10.160;2022-07-22T00:12:32;10.80;;;9.53;;
2474;SDS011;1248;48.694;10.160;2022-07-22T00:15:00;14.93;;;10.33;;
2474;SDS011;1248;48.694;10.160;2022-07-22T00:17:27;12.50;;;9.87;;
2474;SDS011;1248;48.694;10.160;2022-07-22T00:19:54;15.20;;;9.67;;
2474;SDS011;1248;48.694;10.160;2022-07-22T00:22:21;12.80;;;10.53;;
2474;SDS011;1248;48.694;10.160;2022-07-22T00:24:48;17.00;;;10.87;;
2474;SDS011;1248;48.694;10.160;2022-07-22T00:27:15;13.03;;;10.50;;
2474;SDS011;1248;48.694;10.160;2022-07-22T00:29:43;11.73;;;10.53;;
2474;SDS011;1248;48.694;10.160;2022-07-22T00:32:11;13.13;;;10.13;;
2474;SDS011;1248;48.694;10.160;2022-07-22T00:34:38;10.53;;;9.43;;
2474;SDS011;1248;48.694;10.160;2022-07-22T00:37:05;14.73;;;10.00;;
2474;SDS011;1248;48.694;10.160;2022-07-22T00:39:32;11.97;;;10.67;;
2474;SDS011;1248;48.694;10.160;2022-07-22T00:41:59;11.53;;;9.70;;
2474;SDS011;1248;48.694;10.160;2022-07-22T00:44:26;15.97;;;10.50;;
2474;SDS011;1248;48.694;10.160;2022-07-22T00:46:54;11.60;;;9.60;;
2474;SDS011;1248;48.694;10.160;2022-07-22T00:49:21;11.60;;;10.17;;
2474;SDS011;1248;48.694;10.160;2022-07-22T00:51:48;11.30;;;10.10;;
2474;SDS011;1248;48.694;10.160;2022-07-22T00:54:15;11.93;;;10.40;;
2474;SDS011;1248;48.694;10.160;2022-07-22T00:56:43;13.63;;;11.43;;
2474;SDS011;1248;48.694;10.160;2022-07-22T00:59:11;13.20;;;10.50;;
2474;SDS011;1248;48.694;10.160;2022-07-22T01:01:39;11.97;;;10.03;;
2474;SDS011;1248;48.694;10.160;2022-07-22T01:04:08;11.80;;;10.40;;
2474;SDS011;1248;48.694;10.160;2022-07-22T01:06:35;12.20;;;10.90;;
2474;SDS011;1248;48.694;10.160;2022-07-22T01:09:02;12.30;;;10.77;;
2474;SDS011;1248;48.694;10.160;2022-07-22T01:11:30;12.83;;;10.03;;
2474;SDS011;1248;48.694;10.160;2022-07-22T01:13:57;13.83;;;10.30;;
2474;SDS011;1248;48.694;10.160;2022-07-22T01:16:24;12.13;;;10.70;;
2474;SDS011;1248;48.694;10.160;2022-07-22T01:18:51;16.50;;;10.70;;
2474;SDS011;1248;48.694;10.160;2022-07-22T01:21:20;12.97;;;10.17;;
2474;SDS011;1248;48.694;10.160;2022-07-22T01:23:48;12.17;;;10.23;;
2474;SDS011;1248;48.694;10.160;2022-07-22T01:26:15;15.20;;;11.23;;
2474;SDS011;1248;48.694;10.160;2022-07-22T01:28:43;12.10;;;10.67;;
2474;SDS011;1248;48.694;10.160;2022-07-22T01:31:10;11.83;;;10.60;;
2474;SDS011;1248;48.694;10.160;2022-07-22T01:33:37;11.47;;;10.10;;
2474;SDS011;1248;48.694;10.160;2022-07-22T01:36:04;11.97;;;10.77;;
2474;SDS011;1248;48.694;10.160;2022-07-22T01:38:34;11.77;;;10.10;;
2474;SDS011;1248;48.694;10.160;2022-07-22T01:41:01;11.70;;;9.93;;
2474;SDS011;1248;48.694;10.160;2022-07-22T01:43:28;11.53;;;10.43;;
2474;SDS011;1248;48.694;10.160;2022-07-22T01:45:55;12.03;;;10.17;;
2474;SDS011;1248;48.694;10.160;2022-07-22T01:48:23;12.67;;;10.60;;
2474;SDS011;1248;48.694;10.160;2022-07-22T01:50:50;15.63;;;11.33;;
2474;SDS011;1248;48.694;10.160;2022-07-22T01:53:17;12.10;;;9.23;;
2474;SDS011;1248;48.694;10.160;2022-07-22T01:55:46;12.60;;;10.30;;
2474;SDS011;1248;48.694;10.160;2022-07-22T01:58:13;12.37;;;11.07;;
2474;SDS011;1248;48.694;10.160;2022-07-22T02:00:40;10.93;;;9.70;;
2474;SDS011;1248;48.694;10.160;2022-07-22T02:03:07;13.80;;;9.93;;
2474;SDS011;1248;48.694;10.160;2022-07-22T02:05:36;11.93;;;10.07;;
2474;SDS011;1248;48.694;10.160;2022-07-22T02:08:04;12.73;;;9.80;;
2474;SDS011;1248;48.694;10.160;2022-07-22T02:10:33;12.63;;;9.93;;
2474;SDS011;1248;48.694;10.160;2022-07-22T02:13:02;13.60;;;10.20;;
2474;SDS011;1248;48.694;10.160;2022-07-22T02:15:29;13.03;;;10.37;;
2474;SDS011;1248;48.694;10.160;2022-07-22T02:17:56;11.20;;;10.20;;
2474;SDS011;1248;48.694;10.160;2022-07-22T02:20:23;11.93;;;10.10;;
2474;SDS011;1248;48.694;10.160;2022-07-22T02:22:51;10.63;;;9.53;;
2474;SDS011;1248;48.694;10.160;2022-07-22T02:25:18;13.87;;;10.97;;
2474;SDS011;1248;48.694;10.160;2022-07-22T02:27:45;12.80;;;10.93;;
2474;SDS011;1248;48.694;10.160;2022-07-22T02:30:13;11.10;;;10.00;;
2474;SDS011;1248;48.694;10.160;2022-07-22T02:32:40;11.60;;;10.50;;
2474;SDS011;1248;48.694;10.160;2022-07-22T02:35:07;14.33;;;10.27;;
2474;SDS011;1248;48.694;10.160;2022-07-22T02:37:35;12.60;;;11.33;;
2474;SDS011;1248;48.694;10.160;2022-07-22T02:40:03;11.80;;;10.47;;
2474;SDS011;1248;48.694;10.160;2022-07-22T02:42:31;12.77;;;10.90;;
2474;SDS011;1248;48.694;10.160;2022-07-22T02:44:58;11.60;;;10.40;;
2474;SDS011;1248;48.694;10.160;2022-07-22T02:47:26;14.17;;;9.70;;
2474;SDS011;1248;48.694;10.160;2022-07-22T02:49:54;12.53;;;10.53;;
2474;SDS011;1248;48.694;10.160;2022-07-22T02:52:21;17.60;;;10.13;;
2474;SDS011;1248;48.694;10.160;2022-07-22T02:54:48;15.50;;;11.27;;
2474;SDS011;1248;48.694;10.160;2022-07-22T02:57:15;11.43;;;10.27;;
2474;SDS011;1248;48.694;10.160;2022-07-22T02:59:42;13.67;;;9.43;;
2474;SDS011;1248;48.694;10.160;2022-07-22T03:02:09;11.23;;;10.07;;
2474;SDS011;1248;48.694;10.160;2022-07-22T03:04:37;11.93;;;9.70;;
2474;SDS011;1248;48.694;10.160;2022-07-22T03:07:04;13.50;;;11.40;;
2474;SDS011;1248;48.694;10.160;2022-07-22T03:09:32;14.13;;;11.80;;
2474;SDS011;1248;48.694;10.160;2022-07-22T03:11:59;13.27;;;11.40;;
2474;SDS011;1248;48.694;10.160;2022-07-22T03:14:26;12.33;;;10.77;;
2474;SDS011;1248;48.694;10.160;2022-07-22T03:16:53;12.80;;;11.00;;
2474;SDS011;1248;48.694;10.160;2022-07-22T03:19:20;15.10;;;10.87;;
2474;SDS011;1248;48.694;10.160;2022-07-22T03:21:48;14.17;;;11.77;;
2474;SDS011;1248;48.694;10.160;2022-07-22T03:24:15;15.57;;;11.20;;
2474;SDS011;1248;48.694;10.160;2022-07-22T03:26:42;15.47;;;11.07;;
2474;SDS011;1248;48.694;10.160;2022-07-22T03:29:09;14.03;;;10.97;;
2474;SDS011;1248;48.694;10.160;2022-07-22T03:31:36;15.90;;;11.33;;
2474;SDS011;1248;48.694;10.160;2022-07-22T03:34:03;19.00;;;11.87;;
2474;SDS011;1248;48.694;10.160;2022-07-22T03:36:30;12.63;;;10.57;;
2474;SDS011;1248;48.694;10.160;2022-07-22T03:38:59;12.73;;;10.20;;
2474;SDS011;1248;48.694;10.160;2022-07-22T03:41:26;16.20;;;11.73;;
2474;SDS011;1248;48.694;10.160;2022-07-22T03:43:53;12.03;;;10.83;;
2474;SDS011;1248;48.694;10.160;2022-07-22T03:46:20;21.20;;;13.17;;
2474;SDS011;1248;48.694;10.160;2022-07-22T03:48:47;16.70;;;11.07;;
2474;SDS011;1248;48.694;10.160;2022-07-22T03:51:14;13.03;;;10.30;;
2474;SDS011;1248;48.694;10.160;2022-07-22T03:53:41;12.50;;;10.60;;
2474;SDS011;1248;48.694;10.160;2022-07-22T03:56:09;12.70;;;10.93;;
2474;SDS011;1248;48.694;10.160;2022-07-22T03:58:37;12.00;;;10.77;;
2474;SDS011;1248;48.694;10.160;2022-07-22T04:01:04;17.27;;;13.60;;
2474;SDS011;1248;48.694;10.160;2022-07-22T04:03:31;24.80;;;15.30;;
2474;SDS011;1248;48.694;10.160;2022-07-22T04:05:58;23.37;;;15.27;;
2474;SDS011;1248;48.694;10.160;2022-07-22T04:08:26;22.70;;;14.00;;
2474;SDS011;1248;48.694;10.160;2022-07-22T04:10:53;21.73;;;14.03;;
2474;SDS011;1248;48.694;10.160;2022-07-22T04:13:21;20.70;;;14.40;;
2474;SDS011;1248;48.694;10.160;2022-07-22T04:15:48;19.63;;;12.00;;
2474;SDS011;1248;48.694;10.160;2022-07-22T04:18:15;14.97;;;12.07;;
2474;SDS011;1248;48.694;10.160;2022-07-22T04:20:43;14.50;;;12.20;;
2474;SDS011;1248;48.694;10.160;2022-07-22T04:23:10;16.33;;;11.30;;
2474;SDS011;1248;48.694;10.160;2022-07-22T04:25:37;19.07;;;11.50;;
2474;SDS011;1248;48.694;10.160;2022-07-22T04:28:04;16.27;;;12.23;;
2474;SDS011;1248;48.694;10.160;2022-07-22T04:30:32;13.13;;;11.63;;
2474;SDS011;1248;48.694;10.160;2022-07-22T04:32:59;16.40;;;11.97;;
2474;SDS011;1248;48.694;10.160;2022-07-22T04:35:26;13.57;;;11.97;;
2474;SDS011;1248;48.694;10.160;2022-07-22T04:37:54;14.83;;;12.53;;
2474;SDS011;1248;48.694;10.160;2022-07-22T04:40:21;20.43;;;11.40;;
2474;SDS011;1248;48.694;10.160;2022-07-22T04:42:48;16.50;;;11.00;;
2474;SDS011;1248;48.694;10.160;2022-07-22T04:45:15;17.03;;;10.57;;
2474;SDS011;1248;48.694;10.160;2022-07-22T04:47:43;15.67;;;11.40;;
2474;SDS011;1248;48.694;10.160;2022-07-22T04:50:10;13.80;;;10.70;;
2474;SDS011;1248;48.694;10.160;2022-07-22T04:52:37;14.57;;;11.10;;
2474;SDS011;1248;48.694;10.160;2022-07-22T04:55:05;19.27;;;12.00;;
2474;SDS011;1248;48.694;10.160;2022-07-22T04:57:33;14.43;;;10.87;;
2474;SDS011;1248;48.694;10.160;2022-07-22T05:00:00;17.90;;;12.50;;
2474;SDS011;1248;48.694;10.160;2022-07-22T05:02:27;13.30;;;10.23;;
2474;SDS011;1248;48.694;10.160;2022-07-22T05:04:55;16.40;;;12.63;;
2474;SDS011;1248;48.694;10.160;2022-07-22T05:07:22;16.50;;;11.70;;
2474;SDS011;1248;48.694;10.160;2022-07-22T05:09:49;18.00;;;11.03;;
2474;SDS011;1248;48.694;10.160;2022-07-22T05:12:16;15.23;;;11.87;;
2474;SDS011;1248;48.694;10.160;2022-07-22T05:14:43;13.10;;;11.67;;
2474;SDS011;1248;48.694;10.160;2022-07-22T05:17:10;15.70;;;11.53;;
2474;SDS011;1248;48.694;10.160;2022-07-22T05:19:38;19.43;;;11.77;;
2474;SDS011;1248;48.694;10.160;2022-07-22T05:22:07;12.97;;;11.27;;
2474;SDS011;1248;48.694;10.160;2022-07-22T05:24:34;13.60;;;11.23;;
2474;SDS011;1248;48.694;10.160;2022-07-22T05:27:02;16.03;;;11.03;;
2474;SDS011;1248;48.694;10.160;2022-07-22T05:29:29;13.90;;;12.10;;
2474;SDS011;1248;48.694;10.160;2022-07-22T05:31:56;16.83;;;11.10;;
2474;SDS011;1248;48.694;10.160;2022-07-22T05:34:23;21.53;;;13.60;;
2474;SDS011;1248;48.694;10.160;2022-07-22T05:36:50;18.53;;;11.80;;
2474;SDS011;1248;48.694;10.160;2022-07-22T05:39:19;16.40;;;13.03;;
2474;SDS011;1248;48.694;10.160;2022-07-22T05:41:46;18.03;;;13.17;;
2474;SDS011;1248;48.694;10.160;2022-07-22T05:44:13;19.23;;;13.47;;
2474;SDS011;1248;48.694;10.160;2022-07-22T05:46:40;25.93;;;13.97;;
2474;SDS011;1248;48.694;10.160;2022-07-22T05:49:07;15.27;;;12.47;;
2474;SDS011;1248;48.694;10.160;2022-07-22T05:51:34;21.03;;;11.30;;
2474;SDS011;1248;48.694;10.160;2022-07-22T05:54:01;16.40;;;11.30;;
2474;SDS011;1248;48.694;10.160;2022-07-22T05:56:30;14.73;;;11.40;;
2474;SDS011;1248;48.694;10.160;2022-07-22T05:58:58;16.07;;;11.33;;
2474;SDS011;1248;48.694;10.160;2022-07-22T06:01:25;18.57;;;11.37;;
2474;SDS011;1248;48.694;10.160;2022-07-22T06:03:52;15.57;;;11.40;;
2474;SDS011;1248;48.694;10.160;2022-07-22T06:06:19;14.90;;;10.83;;
2474;SDS011;1248;48.694;10.160;2022-07-22T06:08:46;20.10;;;11.93;;
2474;SDS011;1248;48.694;10.160;2022-07-22T06:11:13;17.13;;;11.83;;
2474;SDS011;1248;48.694;10.160;2022-07-22T06:13:41;18.90;;;12.10;;
2474;SDS011;1248;48.694;10.160;2022-07-22T06:16:08;23.33;;;11.77;;
2474;SDS011;1248;48.694;10.160;2022-07-22T06:18:35;15.57;;;11.50;;
2474;SDS011;1248;48.694;10.160;2022-07-22T06:21:03;13.53;;;11.70;;
2474;SDS011;1248;48.694;10.160;2022-07-22T06:23:31;13.47;;;12.07;;
2474;SDS011;1248;48.694;10.160;2022-07-22T06:25:58;17.20;;;11.90;;
2474;SDS011;1248;48.694;10.160;2022-07-22T06:28:25;16.43;;;10.00;;
2474;SDS011;1248;48.694;10.160;2022-07-22T06:30:53;16.37;;;10.70;;
2474;SDS011;1248;48.694;10.160;2022-07-22T06:33:20;14.70;;;12.13;;
2474;SDS011;1248;48.694;10.160;2022-07-22T06:35:47;17.20;;;10.63;;
2474;SDS011;1248;48.694;10.160;2022-07-22T06:38:14;20.30;;;10.70;;
2474;SDS011;1248;48.694;10.160;2022-07-22T06:40:41;26.17;;;11.77;;
2474;SDS011;1248;48.694;10.160;2022-07-22T06:43:08;13.97;;;11.83;;
2474;SDS011;1248;48.694;10.160;2022-07-22T06:45:35;17.63;;;11.67;;
2474;SDS011;1248;48.694;10.160;2022-07-22T06:48:04;14.23;;;11.07;;
2474;SDS011;1248;48.694;10.160;2022-07-22T06:50:31;15.87;;;10.63;;
2474;SDS011;1248;48.694;10.160;2022-07-22T06:52:58;12.03;;;10.70;;
2474;SDS011;1248;48.694;10.160;2022-07-22T06:55:25;14.87;;;11.33;;
2474;SDS011;1248;48.694;10.160;2022-07-22T06:57:53;10.80;;;9.70;;
2474;SDS011;1248;48.694;10.160;2022-07-22T07:00:19;12.27;;;10.47;;
2474;SDS011;1248;48.694;10.160;2022-07-22T07:02:47;12.50;;;10.37;;
2474;SDS011;1248;48.694;10.160;2022-07-22T07:05:15;11.80;;;9.17;;
2474;SDS011;1248;48.694;10.160;2022-07-22T07:07:42;14.47;;;11.60;;
2474;SDS011;1248;48.694;10.160;2022-07-22T07:10:09;13.37;;;10.00;;
2474;SDS011;1248;48.694;10.160;2022-07-22T07:12:38;10.97;;;9.50;;
2474;SDS011;1248;48.694;10.160;2022-07-22T07:15:05;14.00;;;10.40;;
2474;SDS011;1248;48.694;10.160;2022-07-22T07:17:33;12.77;;;11.37;;
2474;SDS011;1248;48.694;10.160;2022-07-22T07:20:00;10.17;;;9.17;;
2474;SDS011;1248;48.694;10.160;2022-07-22T07:22:28;10.43;;;9.20;;
2474;SDS011;1248;48.694;10.160;2022-07-22T07:24:55;10.20;;;9.20;;
2474;SDS011;1248;48.694;10.160;2022-07-22T07:27:22;12.80;;;10.17;;
2474;SDS011;1248;48.694;10.160;2022-07-22T07:29:50;10.60;;;9.50;;
2474;SDS011;1248;48.694;10.160;2022-07-22T07:32:17;10.63;;;9.73;;
2474;SDS011;1248;48.694;10.160;2022-07-22T07:34:44;11.03;;;9.13;;
2474;SDS011;1248;48.694;10.160;2022-07-22T07:37:11;9.83;;;8.80;;
2474;SDS011;1248;48.694;10.160;2022-07-22T07:39:40;9.67;;;8.77;;
2474;SDS011;1248;48.694;10.160;2022-07-22T07:42:07;9.20;;;8.37;;
2474;SDS011;1248;48.694;10.160;2022-07-22T07:44:34;12.10;;;10.80;;
2474;SDS011;1248;48.694;10.160;2022-07-22T07:47:01;13.93;;;9.43;;
2474;SDS011;1248;48.694;10.160;2022-07-22T07:49:28;10.63;;;9.53;;
2474;SDS011;1248;48.694;10.160;2022-07-22T07:51:55;10.27;;;9.27;;
2474;SDS011;1248;48.694;10.160;2022-07-22T07:54:22;9.20;;;8.23;;
2474;SDS011;1248;48.694;10.160;2022-07-22T07:56:51;9.30;;;8.40;;
2474;SDS011;1248;48.694;10.160;2022-07-22T07:59:18;16.67;;;9.23;;
2474;SDS011;1248;48.694;10.160;2022-07-22T08:01:45;14.80;;;12.80;;
2474;SDS011;1248;48.694;10.160;2022-07-22T08:04:13;33.37;;;18.70;;
2474;SDS011;1248;48.694;10.160;2022-07-22T08:06:40;17.00;;;14.33;;
2474;SDS011;1248;48.694;10.160;2022-07-22T08:09:07;11.40;;;10.30;;
2474;SDS011;1248;48.694;10.160;2022-07-22T08:11:34;13.10;;;11.67;;
2474;SDS011;1248;48.694;10.160;2022-07-22T08:14:02;10.93;;;9.80;;
2474;SDS011;1248;48.694;10.160;2022-07-22T08:16:29;11.57;;;9.67;;
2474;SDS011;1248;48.694;10.160;2022-07-22T08:18:56;11.30;;;10.13;;
2474;SDS011;1248;48.694;10.160;2022-07-22T08:21:23;10.97;;;9.90;;
2474;SDS011;1248;48.694;10.160;2022-07-22T08:23:51;10.53;;;9.43;;
2474;SDS011;1248;48.694;10.160;2022-07-22T08:26:18;10.40;;;9.40;;
2474;SDS011;1248;48.694;10.160;2022-07-22T08:28:45;12.03;;;8.43;;
2474;SDS011;1248;48.694;10.160;2022-07-22T08:31:14;9.80;;;8.80;;
2474;SDS011;1248;48.694;10.160;2022-07-22T08:33:41;11.00;;;9.90;;
2474;SDS011;1248;48.694;10.160;2022-07-22T08:36:09;11.67;;;9.30;;
2474;SDS011;1248;48.694;10.160;2022-07-22T08:38:36;9.13;;;8.23;;
2474;SDS011;1248;48.694;10.160;2022-07-22T08:41:03;10.07;;;8.67;;
2474;SDS011;1248;48.694;10.160;2022-07-22T08:43:30;11.00;;;8.90;;
2474;SDS011;1248;48.694;10.160;2022-07-22T08:45:58;8.87;;;8.17;;
2474;SDS011;1248;48.694;10.160;2022-07-22T08:48:27;9.83;;;8.93;;
2474;SDS011;1248;48.694;10.160;2022-07-22T08:50:54;9.63;;;8.67;;
2474;SDS011;1248;48.694;10.160;2022-07-22T08:53:21;10.07;;;7.87;;
2474;SDS011;1248;48.694;10.160;2022-07-22T08:55:48;8.23;;;7.53;;
2474;SDS011;1248;48.694;10.160;2022-07-22T08:58:15;9.80;;;8.73;;
2474;SDS011;1248;48.694;10.160;2022-07-22T09:00:43;14.33;;;8.00;;
2474;SDS011;1248;48.694;10.160;2022-07-22T09:03:17;9.03;;;7.10;;
2474;SDS011;1248;48.694;10.160;2022-07-22T09:05:47;10.27;;;8.70;;
2474;SDS011;1248;48.694;10.160;2022-07-22T09:08:15;8.70;;;7.40;;
2474;SDS011;1248;48.694;10.160;2022-07-22T09:10:43;10.07;;;7.97;;
2474;SDS011;1248;48.694;10.160;2022-07-22T09:13:10;9.90;;;8.40;;
2474;SDS011;1248;48.694;10.160;2022-07-22T09:15:38;10.83;;;7.67;;
2474;SDS011;1248;48.694;10.160;2022-07-22T09:18:07;8.10;;;7.37;;
2474;SDS011;1248;48.694;10.160;2022-07-22T09:20:34;9.13;;;8.27;;
2474;SDS011;1248;48.694;10.160;2022-07-22T09:23:08;8.93;;;8.03;;
2474;SDS011;1248;48.694;10.160;2022-07-22T09:25:36;10.70;;;8.00;;
2474;SDS011;1248;48.694;10.160;2022-07-22T09:28:11;8.57;;;7.77;;
2474;SDS011;1248;48.694;10.160;2022-07-22T09:30:41;8.73;;;7.87;;
2474;SDS011;1248;48.694;10.160;2022-07-22T09:33:12;9.27;;;7.47;;
2474;SDS011;1248;48.694;10.160;2022-07-22T09:35:39;8.93;;;8.03;;
2474;SDS011;1248;48.694;10.160;2022-07-22T09:38:09;8.87;;;7.97;;
2474;SDS011;1248;48.694;10.160;2022-07-22T09:40:37;8.63;;;7.77;;
2474;SDS011;1248;48.694;10.160;2022-07-22T09:43:07;10.13;;;7.60;;
2474;SDS011;1248;48.694;10.160;2022-07-22T09:45:49;9.57;;;8.67;;
2474;SDS011;1248;48.694;10.160;2022-07-22T09:48:17;9.13;;;7.87;;
2474;SDS011;1248;48.694;10.160;2022-07-22T09:50:46;9.07;;;7.20;;
2474;SDS011;1248;48.694;10.160;2022-07-22T09:53:15;9.50;;;7.87;;
2474;SDS011;1248;48.694;10.160;2022-07-22T09:55:42;7.80;;;7.10;;
2474;SDS011;1248;48.694;10.160;2022-07-22T09:58:10;8.80;;;8.07;;
2474;SDS011;1248;48.694;10.160;2022-07-22T10:00:38;8.87;;;7.97;;
2474;SDS011;1248;48.694;10.160;2022-07-22T10:03:06;8.50;;;7.70;;
2474;SDS011;1248;48.694;10.160;2022-07-22T10:05:35;9.47;;;7.43;;
2474;SDS011;1248;48.694;10.160;2022-07-22T10:08:04;8.97;;;8.07;;
2474;SDS011;1248;48.694;10.160;2022-07-22T10:10:34;10.37;;;9.47;;
2474;SDS011;1248;48.694;10.160;2022-07-22T10:13:02;8.40;;;7.60;;
2474;SDS011;1248;48.694;10.160;2022-07-22T10:15:31;8.70;;;7.77;;
2474;SDS011;1248;48.694;10.160;2022-07-22T10:17:59;8.37;;;7.33;;
2474;SDS011;1248;48.694;10.160;2022-07-22T10:20:29;8.50;;;7.70;;
2474;SDS011;1248;48.694;10.160;2022-07-22T10:22:58;8.67;;;7.80;;
2474;SDS011;1248;48.694;10.160;2022-07-22T10:25:26;9.00;;;8.07;;
2474;SDS011;1248;48.694;10.160;2022-07-22T10:27:57;9.50;;;8.50;;
2474;SDS011;1248;48.694;10.160;2022-07-22T10:30:25;9.27;;;7.87;;
2474;SDS011;1248;48.694;10.160;2022-07-22T10:33:03;8.93;;;8.03;;
2474;SDS011;1248;48.694;10.160;2022-07-22T10:35:37;8.50;;;7.80;;
2474;SDS011;1248;48.694;10.160;2022-07-22T10:38:05;8.52;;;7.65;;
2474;SDS011;1248;48.694;10.160;2022-07-22T10:40:47;8.63;;;7.73;;
2474;SDS011;1248;48.694;10.160;2022-07-22T10:43:17;8.73;;;7.80;;
2474;SDS011;1248;48.694;10.160;2022-07-22T10:45:45;7.97;;;7.27;;
2474;SDS011;1248;48.694;10.160;2022-07-22T10:48:15;7.70;;;7.00;;
2474;SDS011;1248;48.694;10.160;2022-07-22T10:50:50;8.07;;;6.50;;
2474;SDS011;1248;48.694;10.160;2022-07-22T10:53:45;9.97;;;6.50;;
2474;SDS011;1248;48.694;10.160;2022-07-22T10:56:19;7.67;;;6.87;;
2474;SDS011;1248;48.694;10.160;2022-07-22T10:58:51;9.73;;;7.40;;
2474;SDS011;1248;48.694;10.160;2022-07-22T11:01:26;7.90;;;7.20;;
2474;SDS011;1248;48.694;10.160;2022-07-22T11:03:55;7.93;;;7.23;;
2474;SDS011;1248;48.694;10.160;2022-07-22T11:06:27;7.40;;;6.80;;
2474;SDS011;1248;48.694;10.160;2022-07-22T11:08:56;8.93;;;7.17;;
2474;SDS011;1248;48.694;10.160;2022-07-22T11:14:19;7.80;;;7.03;;
2474;SDS011;1248;48.694;10.160;2022-07-22T11:16:50;8.13;;;7.20;;
2474;SDS011;1248;48.694;10.160;2022-07-22T11:19:21;8.33;;;7.63;;
2474;SDS011;1248;48.694;10.160;2022-07-22T11:21:54;8.00;;;7.20;;
2474;SDS011;1248;48.694;10.160;2022-07-22T11:24:22;8.33;;;6.87;;
2474;SDS011;1248;48.694;10.160;2022-07-22T11:26:50;11.47;;;7.53;;
2474;SDS011;1248;48.694;10.160;2022-07-22T11:29:24;8.07;;;7.27;;
2474;SDS011;1248;48.694;10.160;2022-07-22T11:31:52;6.90;;;6.30;;
2474;SDS011;1248;48.694;10.160;2022-07-22T11:34:20;8.10;;;7.40;;
2474;SDS011;1248;48.694;10.160;2022-07-22T11:36:49;7.60;;;6.50;;
2474;SDS011;1248;48.694;10.160;2022-07-22T11:39:18;7.63;;;6.93;;
2474;SDS011;1248;48.694;10.160;2022-07-22T11:41:46;7.60;;;6.67;;
2474;SDS011;1248;48.694;10.160;2022-07-22T11:44:16;10.00;;;6.90;;
2474;SDS011;1248;48.694;10.160;2022-07-22T11:46:45;6.40;;;5.90;;
2474;SDS011;1248;48.694;10.160;2022-07-22T11:49:13;7.93;;;6.90;;
2474;SDS011;1248;48.694;10.160;2022-07-22T11:51:41;7.37;;;6.67;;
2474;SDS011;1248;48.694;10.160;2022-07-22T11:54:08;8.03;;;6.70;;
2474;SDS011;1248;48.694;10.160;2022-07-22T11:56:35;7.47;;;6.77;;
2474;SDS011;1248;48.694;10.160;2022-07-22T11:59:03;9.97;;;6.83;;
2474;SDS011;1248;48.694;10.160;2022-07-22T12:01:31;9.17;;;6.97;;
2474;SDS011;1248;48.694;10.160;2022-07-22T12:04:02;7.13;;;6.23;;
2474;SDS011;1248;48.694;10.160;2022-07-22T12:06:30;7.33;;;6.70;;
2474;SDS011;1248;48.694;10.160;2022-07-22T12:09:03;7.23;;;6.63;;
2474;SDS011;1248;48.694;10.160;2022-07-22T12:11:31;7.70;;;6.90;;
2474;SDS011;1248;48.694;10.160;2022-07-22T12:14:01;8.23;;;7.23;;
2474;SDS011;1248;48.694;10.160;2022-07-22T12:16:31;7.17;;;6.57;;
2474;SDS011;1248;48.694;10.160;2022-07-22T12:18:59;9.30;;;6.83;;
2474;SDS011;1248;48.694;10.160;2022-07-22T12:21:30;8.00;;;7.23;;
2474;SDS011;1248;48.694;10.160;2022-07-22T12:24:00;7.77;;;7.07;;
2474;SDS011;1248;48.694;10.160;2022-07-22T12:26:40;7.50;;;6.80;;
2474;SDS011;1248;48.694;10.160;2022-07-22T12:29:20;6.67;;;6.17;;
2474;SDS011;1248;48.694;10.160;2022-07-22T12:31:48;7.03;;;6.43;;
2474;SDS011;1248;48.694;10.160;2022-07-22T12:34:17;7.17;;;6.47;;
2474;SDS011;1248;48.694;10.160;2022-07-22T12:36:57;7.13;;;6.40;;
2474;SDS011;1248;48.694;10.160;2022-07-22T12:39:24;7.57;;;6.97;;
2474;SDS011;1248;48.694;10.160;2022-07-22T12:41:51;6.33;;;5.80;;
2474;SDS011;1248;48.694;10.160;2022-07-22T12:44:20;7.53;;;6.20;;
2474;SDS011;1248;48.694;10.160;2022-07-22T12:46:49;8.43;;;7.10;;
2474;SDS011;1248;48.694;10.160;2022-07-22T12:49:18;6.80;;;6.20;;
2474;SDS011;1248;48.694;10.160;2022-07-22T12:52:10;7.37;;;6.60;;
2474;SDS011;1248;48.694;10.160;2022-07-22T12:54:39;6.33;;;5.80;;
2474;SDS011;1248;48.694;10.160;2022-07-22T12:57:07;8.00;;;7.03;;
2474;SDS011;1248;48.694;10.160;2022-07-22T12:59:35;6.50;;;6.00;;
2474;SDS011;1248;48.694;10.160;2022-07-22T13:02:02;6.47;;;5.87;;
2474;SDS011;1248;48.694;10.160;2022-07-22T13:04:30;6.10;;;5.60;;
2474;SDS011;1248;48.694;10.160;2022-07-22T13:06:57;6.43;;;5.90;;
2474;SDS011;1248;48.694;10.160;2022-07-22T13:09:25;7.80;;;5.93;;
2474;SDS011;1248;48.694;10.160;2022-07-22T13:11:52;7.07;;;6.47;;
2474;SDS011;1248;48.694;10.160;2022-07-22T13:14:19;8.03;;;6.20;;
2474;SDS011;1248;48.694;10.160;2022-07-22T13:16:46;7.13;;;6.20;;
2474;SDS011;1248;48.694;10.160;2022-07-22T13:19:13;7.40;;;6.07;;
2474;SDS011;1248;48.694;10.160;2022-07-22T13:21:40;7.10;;;6.40;;
2474;SDS011;1248;48.694;10.160;2022-07-22T13:24:08;7.60;;;6.00;;
2474;SDS011;1248;48.694;10.160;2022-07-22T13:26:36;7.10;;;6.47;;
2474;SDS011;1248;48.694;10.160;2022-07-22T13:29:03;7.10;;;6.50;;
2474;SDS011;1248;48.694;10.160;2022-07-22T13:31:30;9.30;;;5.23;;
2474;SDS011;1248;48.694;10.160;2022-07-22T13:33:57;5.77;;;5.23;;
2474;SDS011;1248;48.694;10.160;2022-07-22T13:36:24;5.83;;;5.33;;
2474;SDS011;1248;48.694;10.160;2022-07-22T13:38:53;9.03;;;5.80;;
2474;SDS011;1248;48.694;10.160;2022-07-22T13:41:20;6.77;;;6.07;;
2474;SDS011;1248;48.694;10.160;2022-07-22T13:43:49;5.60;;;5.10;;
2474;SDS011;1248;48.694;10.160;2022-07-22T13:46:16;6.10;;;5.50;;
2474;SDS011;1248;48.694;10.160;2022-07-22T13:48:44;7.63;;;5.43;;
2474;SDS011;1248;48.694;10.160;2022-07-22T13:51:11;6.00;;;5.50;;
2474;SDS011;1248;48.694;10.160;2022-07-22T13:53:40;6.30;;;5.00;;
2474;SDS011;1248;48.694;10.160;2022-07-22T13:56:07;6.30;;;5.80;;
2474;SDS011;1248;48.694;10.160;2022-07-22T13:58:35;6.07;;;5.10;;
2474;SDS011;1248;48.694;10.160;2022-07-22T14:01:04;7.00;;;5.67;;
2474;SDS011;1248;48.694;10.160;2022-07-22T14:03:33;12.10;;;5.37;;
2474;SDS011;1248;48.694;10.160;2022-07-22T14:06:00;5.97;;;5.47;;
2474;SDS011;1248;48.694;10.160;2022-07-22T14:08:27;5.13;;;4.47;;
2474;SDS011;1248;48.694;10.160;2022-07-22T14:10:54;7.57;;;5.20;;
2474;SDS011;1248;48.694;10.160;2022-07-22T14:13:21;4.87;;;4.57;;
2474;SDS011;1248;48.694;10.160;2022-07-22T14:15:48;5.87;;;4.90;;
2474;SDS011;1248;48.694;10.160;2022-07-22T14:18:16;5.93;;;5.33;;
2474;SDS011;1248;48.694;10.160;2022-07-22T14:20:43;5.23;;;4.77;;
2474;SDS011;1248;48.694;10.160;2022-07-22T14:23:10;6.20;;;5.60;;
2474;SDS011;1248;48.694;10.160;2022-07-22T14:25:39;6.93;;;6.33;;
2474;SDS011;1248;48.694;10.160;2022-07-22T14:28:06;5.40;;;4.90;;
2474;SDS011;1248;48.694;10.160;2022-07-22T14:30:33;5.27;;;4.87;;
2474;SDS011;1248;48.694;10.160;2022-07-22T14:33:02;6.13;;;5.63;;
2474;SDS011;1248;48.694;10.160;2022-07-22T14:35:30;6.80;;;5.17;;
2474;SDS011;1248;48.694;10.160;2022-07-22T14:38:00;6.60;;;5.50;;
2474;SDS011;1248;48.694;10.160;2022-07-22T14:40:27;6.00;;;5.50;;
2474;SDS011;1248;48.694;10.160;2022-07-22T14:42:54;5.73;;;5.23;;
2474;SDS011;1248;48.694;10.160;2022-07-22T14:45:21;7.17;;;5.90;;
2474;SDS011;1248;48.694;10.160;2022-07-22T14:47:48;5.73;;;4.83;;
2474;SDS011;1248;48.694;10.160;2022-07-22T14:50:15;5.80;;;5.30;;
2474;SDS011;1248;48.694;10.160;2022-07-22T14:52:44;5.90;;;5.43;;
2474;SDS011;1248;48.694;10.160;2022-07-22T14:55:11;6.30;;;5.80;;